sensor_id;sensor_type;location;lat;lon;timestamp;P1;durP1;ratioP1;P2;durP2;ratioP2
6135;SDS011;24008;42.664;23.372;2023-03-01T00:02:23;7.77;;;5.30;;
6135;SDS011;24008;42.664;23.372;2023-03-01T00:04:50;7.53;;;5.10;;
6135;SDS011;24008;42.664;23.372;2023-03-01T00:07:17;6.53;;;4.40;;
6135;SDS011;24008;42.664;23.372;2023-03-01T00:09:44;7.47;;;4.77;;
6135;SDS011;24008;42.664;23.372;2023-03-01T00:12:12;9.00;;;4.70;;
6135;SDS011;24008;42.664;23.372;2023-03-01T00:14:39;5.40;;;3.80;;
6135;SDS011;24008;42.664;23.372;2023-03-01T00:17:06;5.77;;;4.33;;
6135;SDS011;24008;42.664;23.372;2023-03-01T00:19:32;6.70;;;4.73;;
6135;SDS011;24008;42.664;23.372;2023-03-01T00:21:59;5.93;;;4.27;;
6135;SDS011;24008;42.664;23.372;2023-03-01T00:24:26;6.10;;;4.70;;
6135;SDS011;24008;42.664;23.372;2023-03-01T00:26:53;4.73;;;3.50;;
6135;SDS011;24008;42.664;23.372;2023-03-01T00:29:23;6.00;;;4.37;;
6135;SDS011;24008;42.664;23.372;2023-03-01T00:31:51;6.40;;;4.13;;
6135;SDS011;24008;42.664;23.372;2023-03-01T00:34:17;6.27;;;4.00;;
6135;SDS011;24008;42.664;23.372;2023-03-01T00:36:44;5.23;;;3.70;;
6135;SDS011;24008;42.664;23.372;2023-03-01T00:39:13;6.27;;;4.43;;
6135;SDS011;24008;42.664;23.372;2023-03-01T00:41:40;8.40;;;4.43;;
6135;SDS011;24008;42.664;23.372;2023-03-01T00:44:08;5.13;;;3.77;;
6135;SDS011;24008;42.664;23.372;2023-03-01T00:46:36;6.50;;;4.13;;
6135;SDS011;24008;42.664;23.372;2023-03-01T00:49:03;5.10;;;3.70;;
6135;SDS011;24008;42.664;23.372;2023-03-01T00:51:31;7.00;;;4.33;;
6135;SDS011;24008;42.664;23.372;2023-03-01T00:53:58;6.07;;;4.50;;
6135;SDS011;24008;42.664;23.372;2023-03-01T00:56:47;7.33;;;4.80;;
6135;SDS011;24008;42.664;23.372;2023-03-01T00:59:13;7.00;;;4.60;;
6135;SDS011;24008;42.664;23.372;2023-03-01T01:01:42;5.17;;;4.17;;
6135;SDS011;24008;42.664;23.372;2023-03-01T01:04:09;5.07;;;3.80;;
6135;SDS011;24008;42.664;23.372;2023-03-01T01:06:39;5.73;;;4.73;;
6135;SDS011;24008;42.664;23.372;2023-03-01T01:09:08;5.10;;;3.67;;
6135;SDS011;24008;42.664;23.372;2023-03-01T01:11:42;4.40;;;3.33;;
6135;SDS011;24008;42.664;23.372;2023-03-01T01:14:09;4.10;;;3.37;;
6135;SDS011;24008;42.664;23.372;2023-03-01T01:16:36;5.37;;;4.47;;
6135;SDS011;24008;42.664;23.372;2023-03-01T01:19:04;4.40;;;3.20;;
6135;SDS011;24008;42.664;23.372;2023-03-01T01:21:32;4.47;;;3.00;;
6135;SDS011;24008;42.664;23.372;2023-03-01T01:23:59;4.90;;;3.40;;
6135;SDS011;24008;42.664;23.372;2023-03-01T01:26:26;4.50;;;3.47;;
6135;SDS011;24008;42.664;23.372;2023-03-01T01:28:55;4.40;;;4.00;;
6135;SDS011;24008;42.664;23.372;2023-03-01T01:31:22;3.93;;;3.10;;
6135;SDS011;24008;42.664;23.372;2023-03-01T01:33:50;4.43;;;2.97;;
6135;SDS011;24008;42.664;23.372;2023-03-01T01:36:18;4.07;;;3.47;;
6135;SDS011;24008;42.664;23.372;2023-03-01T01:38:46;3.77;;;3.37;;
6135;SDS011;24008;42.664;23.372;2023-03-01T01:41:14;4.33;;;3.83;;
6135;SDS011;24008;42.664;23.372;2023-03-01T01:43:42;4.33;;;3.70;;
6135;SDS011;24008;42.664;23.372;2023-03-01T01:46:14;4.53;;;2.70;;
6135;SDS011;24008;42.664;23.372;2023-03-01T01:48:48;4.57;;;3.57;;
6135;SDS011;24008;42.664;23.372;2023-03-01T01:51:20;2.27;;;1.87;;
6135;SDS011;24008;42.664;23.372;2023-03-01T01:53:51;3.93;;;3.33;;
6135;SDS011;24008;42.664;23.372;2023-03-01T01:56:22;3.63;;;3.23;;
6135;SDS011;24008;42.664;23.372;2023-03-01T01:58:53;3.57;;;3.27;;
6135;SDS011;24008;42.664;23.372;2023-03-01T02:01:20;3.77;;;3.40;;
6135;SDS011;24008;42.664;23.372;2023-03-01T02:03:47;3.33;;;2.97;;
6135;SDS011;24008;42.664;23.372;2023-03-01T02:06:17;4.80;;;3.27;;
6135;SDS011;24008;42.664;23.372;2023-03-01T02:08:49;4.40;;;3.73;;
6135;SDS011;24008;42.664;23.372;2023-03-01T02:11:18;3.43;;;3.13;;
6135;SDS011;24008;42.664;23.372;2023-03-01T02:13:47;4.07;;;3.67;;
6135;SDS011;24008;42.664;23.372;2023-03-01T02:16:15;3.63;;;3.33;;
6135;SDS011;24008;42.664;23.372;2023-03-01T02:18:42;4.07;;;3.67;;
6135;SDS011;24008;42.664;23.372;2023-03-01T02:21:14;5.13;;;2.97;;
6135;SDS011;24008;42.664;23.372;2023-03-01T02:23:54;3.63;;;3.33;;
6135;SDS011;24008;42.664;23.372;2023-03-01T02:26:25;4.63;;;4.17;;
6135;SDS011;24008;42.664;23.372;2023-03-01T02:29:01;3.80;;;3.37;;
6135;SDS011;24008;42.664;23.372;2023-03-01T02:31:30;3.10;;;2.37;;
6135;SDS011;24008;42.664;23.372;2023-03-01T02:34:12;3.30;;;2.87;;
6135;SDS011;24008;42.664;23.372;2023-03-01T02:36:40;3.67;;;3.23;;
6135;SDS011;24008;42.664;23.372;2023-03-01T02:39:14;3.87;;;3.40;;
6135;SDS011;24008;42.664;23.372;2023-03-01T02:41:45;3.90;;;3.23;;
6135;SDS011;24008;42.664;23.372;2023-03-01T02:44:15;4.60;;;3.87;;
6135;SDS011;24008;42.664;23.372;2023-03-01T02:46:43;3.20;;;2.90;;
6135;SDS011;24008;42.664;23.372;2023-03-01T02:49:22;4.37;;;3.50;;
6135;SDS011;24008;42.664;23.372;2023-03-01T02:51:58;5.53;;;3.80;;
6135;SDS011;24008;42.664;23.372;2023-03-01T02:54:36;4.50;;;3.37;;
6135;SDS011;24008;42.664;23.372;2023-03-01T02:57:08;5.47;;;3.20;;
6135;SDS011;24008;42.664;23.372;2023-03-01T02:59:37;4.80;;;2.73;;
6135;SDS011;24008;42.664;23.372;2023-03-01T03:02:05;3.47;;;2.60;;
6135;SDS011;24008;42.664;23.372;2023-03-01T03:04:33;4.63;;;3.73;;
6135;SDS011;24008;42.664;23.372;2023-03-01T03:06:59;3.37;;;2.80;;
6135;SDS011;24008;42.664;23.372;2023-03-01T03:09:26;4.77;;;3.67;;
6135;SDS011;24008;42.664;23.372;2023-03-01T03:11:53;4.33;;;3.03;;
6135;SDS011;24008;42.664;23.372;2023-03-01T03:14:20;4.13;;;3.50;;
6135;SDS011;24008;42.664;23.372;2023-03-01T03:16:48;6.20;;;4.23;;
6135;SDS011;24008;42.664;23.372;2023-03-01T03:19:17;5.13;;;3.37;;
6135;SDS011;24008;42.664;23.372;2023-03-01T03:21:44;4.13;;;3.17;;
6135;SDS011;24008;42.664;23.372;2023-03-01T03:24:11;4.10;;;3.50;;
6135;SDS011;24008;42.664;23.372;2023-03-01T03:26:38;3.70;;;2.97;;
6135;SDS011;24008;42.664;23.372;2023-03-01T03:29:05;4.23;;;2.93;;
6135;SDS011;24008;42.664;23.372;2023-03-01T03:31:32;3.67;;;2.77;;
6135;SDS011;24008;42.664;23.372;2023-03-01T03:34:01;4.70;;;3.47;;
6135;SDS011;24008;42.664;23.372;2023-03-01T03:36:28;4.47;;;3.07;;
6135;SDS011;24008;42.664;23.372;2023-03-01T03:38:54;4.43;;;3.00;;
6135;SDS011;24008;42.664;23.372;2023-03-01T03:41:21;4.27;;;2.83;;
6135;SDS011;24008;42.664;23.372;2023-03-01T03:46:33;5.07;;;3.20;;
6135;SDS011;24008;42.664;23.372;2023-03-01T03:49:01;3.73;;;2.87;;
6135;SDS011;24008;42.664;23.372;2023-03-01T03:51:28;5.07;;;3.90;;
6135;SDS011;24008;42.664;23.372;2023-03-01T03:53:55;4.13;;;3.07;;
6135;SDS011;24008;42.664;23.372;2023-03-01T03:56:22;4.90;;;3.50;;
6135;SDS011;24008;42.664;23.372;2023-03-01T04:02:30;6.10;;;4.20;;
6135;SDS011;24008;42.664;23.372;2023-03-01T04:04:58;7.00;;;3.87;;
6135;SDS011;24008;42.664;23.372;2023-03-01T04:07:25;4.97;;;3.80;;
6135;SDS011;24008;42.664;23.372;2023-03-01T04:09:52;4.77;;;3.67;;
6135;SDS011;24008;42.664;23.372;2023-03-01T04:12:18;5.60;;;3.37;;
6135;SDS011;24008;42.664;23.372;2023-03-01T04:14:48;5.40;;;4.00;;
6135;SDS011;24008;42.664;23.372;2023-03-01T04:17:15;5.17;;;3.50;;
6135;SDS011;24008;42.664;23.372;2023-03-01T04:19:41;5.07;;;4.00;;
6135;SDS011;24008;42.664;23.372;2023-03-01T04:22:10;4.37;;;3.53;;
6135;SDS011;24008;42.664;23.372;2023-03-01T04:24:42;5.50;;;4.40;;
6135;SDS011;24008;42.664;23.372;2023-03-01T04:27:09;5.17;;;4.23;;
6135;SDS011;24008;42.664;23.372;2023-03-01T04:29:36;5.43;;;3.67;;
6135;SDS011;24008;42.664;23.372;2023-03-01T04:32:03;5.13;;;3.33;;
6135;SDS011;24008;42.664;23.372;2023-03-01T04:34:30;4.57;;;3.50;;
6135;SDS011;24008;42.664;23.372;2023-03-01T04:36:57;4.63;;;2.97;;
6135;SDS011;24008;42.664;23.372;2023-03-01T04:39:25;4.30;;;3.33;;
6135;SDS011;24008;42.664;23.372;2023-03-01T04:41:52;4.90;;;3.33;;
6135;SDS011;24008;42.664;23.372;2023-03-01T04:44:19;5.40;;;3.57;;
6135;SDS011;24008;42.664;23.372;2023-03-01T04:46:48;5.80;;;3.47;;
6135;SDS011;24008;42.664;23.372;2023-03-01T04:49:15;4.47;;;3.37;;
6135;SDS011;24008;42.664;23.372;2023-03-01T04:51:41;6.63;;;3.57;;
6135;SDS011;24008;42.664;23.372;2023-03-01T04:54:09;4.50;;;3.27;;
6135;SDS011;24008;42.664;23.372;2023-03-01T04:56:37;5.67;;;3.83;;
6135;SDS011;24008;42.664;23.372;2023-03-01T04:59:03;4.00;;;2.90;;
6135;SDS011;24008;42.664;23.372;2023-03-01T05:01:31;4.43;;;3.37;;
6135;SDS011;24008;42.664;23.372;2023-03-01T05:03:58;4.00;;;3.13;;
6135;SDS011;24008;42.664;23.372;2023-03-01T05:06:28;4.53;;;3.43;;
6135;SDS011;24008;42.664;23.372;2023-03-01T05:08:55;5.47;;;3.80;;
6135;SDS011;24008;42.664;23.372;2023-03-01T05:11:22;7.80;;;3.27;;
6135;SDS011;24008;42.664;23.372;2023-03-01T05:13:50;4.60;;;3.93;;
6135;SDS011;24008;42.664;23.372;2023-03-01T05:16:20;6.53;;;3.93;;
6135;SDS011;24008;42.664;23.372;2023-03-01T05:18:46;5.50;;;4.03;;
6135;SDS011;24008;42.664;23.372;2023-03-01T05:21:16;7.17;;;3.70;;
6135;SDS011;24008;42.664;23.372;2023-03-01T05:23:43;6.80;;;3.53;;
6135;SDS011;24008;42.664;23.372;2023-03-01T05:26:10;4.73;;;3.30;;
6135;SDS011;24008;42.664;23.372;2023-03-01T05:28:37;6.60;;;3.80;;
6135;SDS011;24008;42.664;23.372;2023-03-01T05:31:06;5.83;;;3.80;;
6135;SDS011;24008;42.664;23.372;2023-03-01T05:33:35;6.93;;;4.03;;
6135;SDS011;24008;42.664;23.372;2023-03-01T05:36:02;5.03;;;3.60;;
6135;SDS011;24008;42.664;23.372;2023-03-01T05:38:29;3.97;;;3.57;;
6135;SDS011;24008;42.664;23.372;2023-03-01T05:40:56;5.77;;;3.57;;
6135;SDS011;24008;42.664;23.372;2023-03-01T05:43:23;5.30;;;3.20;;
6135;SDS011;24008;42.664;23.372;2023-03-01T05:45:50;5.03;;;3.57;;
6135;SDS011;24008;42.664;23.372;2023-03-01T05:48:18;5.13;;;3.40;;
6135;SDS011;24008;42.664;23.372;2023-03-01T05:50:45;6.83;;;3.87;;
6135;SDS011;24008;42.664;23.372;2023-03-01T05:53:13;5.70;;;3.57;;
6135;SDS011;24008;42.664;23.372;2023-03-01T05:55:41;6.03;;;4.20;;
6135;SDS011;24008;42.664;23.372;2023-03-01T05:58:12;6.37;;;3.83;;
6135;SDS011;24008;42.664;23.372;2023-03-01T06:00:40;9.50;;;4.80;;
6135;SDS011;24008;42.664;23.372;2023-03-01T06:03:09;6.43;;;3.90;;
6135;SDS011;24008;42.664;23.372;2023-03-01T06:05:38;5.47;;;4.10;;
6135;SDS011;24008;42.664;23.372;2023-03-01T06:08:05;5.13;;;3.27;;
6135;SDS011;24008;42.664;23.372;2023-03-01T06:10:32;8.93;;;4.87;;
6135;SDS011;24008;42.664;23.372;2023-03-01T06:12:59;13.13;;;5.67;;
6135;SDS011;24008;42.664;23.372;2023-03-01T06:15:26;7.03;;;4.70;;
6135;SDS011;24008;42.664;23.372;2023-03-01T06:17:53;7.67;;;5.40;;
6135;SDS011;24008;42.664;23.372;2023-03-01T06:20:23;6.47;;;4.27;;
6135;SDS011;24008;42.664;23.372;2023-03-01T06:22:52;7.30;;;4.17;;
6135;SDS011;24008;42.664;23.372;2023-03-01T06:25:21;8.23;;;4.23;;
6135;SDS011;24008;42.664;23.372;2023-03-01T06:27:50;6.13;;;4.17;;
6135;SDS011;24008;42.664;23.372;2023-03-01T06:30:17;7.53;;;4.70;;
6135;SDS011;24008;42.664;23.372;2023-03-01T06:32:45;7.93;;;5.40;;
6135;SDS011;24008;42.664;23.372;2023-03-01T06:35:12;9.23;;;4.77;;
6135;SDS011;24008;42.664;23.372;2023-03-01T06:37:43;6.30;;;4.43;;
6135;SDS011;24008;42.664;23.372;2023-03-01T06:40:12;4.90;;;3.93;;
6135;SDS011;24008;42.664;23.372;2023-03-01T06:42:40;5.23;;;3.77;;
6135;SDS011;24008;42.664;23.372;2023-03-01T06:45:09;7.00;;;4.17;;
6135;SDS011;24008;42.664;23.372;2023-03-01T06:47:37;6.87;;;4.80;;
6135;SDS011;24008;42.664;23.372;2023-03-01T06:50:04;9.43;;;5.50;;
6135;SDS011;24008;42.664;23.372;2023-03-01T06:52:31;9.10;;;6.10;;
6135;SDS011;24008;42.664;23.372;2023-03-01T06:54:58;7.67;;;4.63;;
6135;SDS011;24008;42.664;23.372;2023-03-01T06:57:27;7.27;;;4.80;;
6135;SDS011;24008;42.664;23.372;2023-03-01T06:59:54;11.50;;;3.57;;
6135;SDS011;24008;42.664;23.372;2023-03-01T07:02:21;5.83;;;4.13;;
6135;SDS011;24008;42.664;23.372;2023-03-01T07:04:48;6.37;;;3.97;;
6135;SDS011;24008;42.664;23.372;2023-03-01T07:07:15;5.80;;;4.30;;
6135;SDS011;24008;42.664;23.372;2023-03-01T07:09:43;5.70;;;3.80;;
6135;SDS011;24008;42.664;23.372;2023-03-01T07:12:10;5.83;;;3.67;;
6135;SDS011;24008;42.664;23.372;2023-03-01T07:14:38;8.03;;;4.10;;
6135;SDS011;24008;42.664;23.372;2023-03-01T07:17:05;4.57;;;3.30;;
6135;SDS011;24008;42.664;23.372;2023-03-01T07:19:31;7.87;;;4.77;;
6135;SDS011;24008;42.664;23.372;2023-03-01T07:21:58;9.10;;;4.40;;
6135;SDS011;24008;42.664;23.372;2023-03-01T07:24:25;6.10;;;3.97;;
6135;SDS011;24008;42.664;23.372;2023-03-01T07:26:52;5.70;;;3.33;;
6135;SDS011;24008;42.664;23.372;2023-03-01T07:29:19;9.70;;;5.10;;
6135;SDS011;24008;42.664;23.372;2023-03-01T07:31:47;5.37;;;3.97;;
6135;SDS011;24008;42.664;23.372;2023-03-01T07:34:14;7.57;;;5.10;;
6135;SDS011;24008;42.664;23.372;2023-03-01T07:36:41;6.90;;;4.57;;
6135;SDS011;24008;42.664;23.372;2023-03-01T07:39:08;5.43;;;4.03;;
6135;SDS011;24008;42.664;23.372;2023-03-01T07:41:36;4.03;;;3.23;;
6135;SDS011;24008;42.664;23.372;2023-03-01T07:44:02;5.60;;;3.97;;
6135;SDS011;24008;42.664;23.372;2023-03-01T07:46:30;4.53;;;3.40;;
6135;SDS011;24008;42.664;23.372;2023-03-01T07:48:58;6.57;;;3.90;;
6135;SDS011;24008;42.664;23.372;2023-03-01T07:51:25;5.07;;;2.60;;
6135;SDS011;24008;42.664;23.372;2023-03-01T07:53:51;6.60;;;3.00;;
6135;SDS011;24008;42.664;23.372;2023-03-01T07:56:18;5.53;;;2.83;;
6135;SDS011;24008;42.664;23.372;2023-03-01T07:58:47;4.90;;;3.50;;
6135;SDS011;24008;42.664;23.372;2023-03-01T08:01:15;5.37;;;3.00;;
6135;SDS011;24008;42.664;23.372;2023-03-01T08:03:43;8.57;;;3.60;;
6135;SDS011;24008;42.664;23.372;2023-03-01T08:06:12;5.77;;;2.50;;
6135;SDS011;24008;42.664;23.372;2023-03-01T08:08:40;4.07;;;2.63;;
6135;SDS011;24008;42.664;23.372;2023-03-01T08:11:08;4.97;;;2.60;;
6135;SDS011;24008;42.664;23.372;2023-03-01T08:13:37;4.13;;;2.43;;
6135;SDS011;24008;42.664;23.372;2023-03-01T08:16:04;3.53;;;2.70;;
6135;SDS011;24008;42.664;23.372;2023-03-01T08:18:33;4.80;;;2.67;;
6135;SDS011;24008;42.664;23.372;2023-03-01T08:21:01;3.60;;;2.73;;
6135;SDS011;24008;42.664;23.372;2023-03-01T08:23:30;5.87;;;2.80;;
6135;SDS011;24008;42.664;23.372;2023-03-01T08:26:04;4.97;;;3.50;;
6135;SDS011;24008;42.664;23.372;2023-03-01T08:28:33;3.20;;;2.87;;
6135;SDS011;24008;42.664;23.372;2023-03-01T08:31:00;5.23;;;3.17;;
6135;SDS011;24008;42.664;23.372;2023-03-01T08:33:27;4.50;;;2.97;;
6135;SDS011;24008;42.664;23.372;2023-03-01T08:36:01;5.30;;;3.47;;
6135;SDS011;24008;42.664;23.372;2023-03-01T08:38:32;3.70;;;2.70;;
6135;SDS011;24008;42.664;23.372;2023-03-01T08:40:59;4.60;;;3.23;;
6135;SDS011;24008;42.664;23.372;2023-03-01T08:43:27;3.80;;;3.17;;
6135;SDS011;24008;42.664;23.372;2023-03-01T08:45:53;5.47;;;3.57;;
6135;SDS011;24008;42.664;23.372;2023-03-01T08:48:20;7.37;;;3.80;;
6135;SDS011;24008;42.664;23.372;2023-03-01T08:50:47;4.73;;;3.10;;
6135;SDS011;24008;42.664;23.372;2023-03-01T08:53:14;4.53;;;2.97;;
6135;SDS011;24008;42.664;23.372;2023-03-01T08:55:42;3.67;;;3.03;;
6135;SDS011;24008;42.664;23.372;2023-03-01T08:58:09;7.67;;;3.37;;
6135;SDS011;24008;42.664;23.372;2023-03-01T09:00:36;7.57;;;3.40;;
6135;SDS011;24008;42.664;23.372;2023-03-01T09:03:02;6.20;;;3.60;;
6135;SDS011;24008;42.664;23.372;2023-03-01T09:05:31;4.03;;;2.90;;
6135;SDS011;24008;42.664;23.372;2023-03-01T09:07:58;3.97;;;2.93;;
6135;SDS011;24008;42.664;23.372;2023-03-01T09:10:25;3.37;;;2.87;;
6135;SDS011;24008;42.664;23.372;2023-03-01T09:12:53;3.63;;;2.50;;
6135;SDS011;24008;42.664;23.372;2023-03-01T09:15:20;4.80;;;3.03;;
6135;SDS011;24008;42.664;23.372;2023-03-01T09:17:46;6.67;;;2.80;;
6135;SDS011;24008;42.664;23.372;2023-03-01T09:20:15;4.50;;;2.50;;
6135;SDS011;24008;42.664;23.372;2023-03-01T09:22:42;3.67;;;2.60;;
6135;SDS011;24008;42.664;23.372;2023-03-01T09:25:09;3.70;;;2.17;;
6135;SDS011;24008;42.664;23.372;2023-03-01T09:27:36;3.67;;;1.67;;
6135;SDS011;24008;42.664;23.372;2023-03-01T09:30:04;3.57;;;1.80;;
6135;SDS011;24008;42.664;23.372;2023-03-01T09:32:32;2.73;;;1.73;;
6135;SDS011;24008;42.664;23.372;2023-03-01T09:34:59;2.20;;;1.77;;
6135;SDS011;24008;42.664;23.372;2023-03-01T09:37:30;2.73;;;1.50;;
6135;SDS011;24008;42.664;23.372;2023-03-01T09:39:58;2.50;;;1.90;;
6135;SDS011;24008;42.664;23.372;2023-03-01T09:42:25;2.07;;;1.63;;
6135;SDS011;24008;42.664;23.372;2023-03-01T09:44:54;2.57;;;1.83;;
6135;SDS011;24008;42.664;23.372;2023-03-01T09:47:26;2.13;;;1.77;;
6135;SDS011;24008;42.664;23.372;2023-03-01T09:49:58;2.57;;;1.57;;
6135;SDS011;24008;42.664;23.372;2023-03-01T09:52:31;1.67;;;1.30;;
6135;SDS011;24008;42.664;23.372;2023-03-01T09:55:04;2.30;;;2.00;;
6135;SDS011;24008;42.664;23.372;2023-03-01T09:57:41;2.63;;;1.97;;
6135;SDS011;24008;42.664;23.372;2023-03-01T10:00:23;4.83;;;1.70;;
6135;SDS011;24008;42.664;23.372;2023-03-01T10:02:59;7.70;;;2.00;;
6135;SDS011;24008;42.664;23.372;2023-03-01T10:05:36;2.73;;;2.03;;
6135;SDS011;24008;42.664;23.372;2023-03-01T10:11:01;6.00;;;2.60;;
6135;SDS011;24008;42.664;23.372;2023-03-01T10:13:29;2.17;;;1.70;;
6135;SDS011;24008;42.664;23.372;2023-03-01T10:16:15;4.13;;;2.70;;
6135;SDS011;24008;42.664;23.372;2023-03-01T10:18:47;3.70;;;2.00;;
6135;SDS011;24008;42.664;23.372;2023-03-01T10:21:20;2.80;;;2.03;;
6135;SDS011;24008;42.664;23.372;2023-03-01T10:23:47;3.10;;;2.20;;
6135;SDS011;24008;42.664;23.372;2023-03-01T10:26:21;5.03;;;2.20;;
6135;SDS011;24008;42.664;23.372;2023-03-01T10:29:01;2.73;;;1.93;;
6135;SDS011;24008;42.664;23.372;2023-03-01T10:31:32;1.73;;;1.23;;
6135;SDS011;24008;42.664;23.372;2023-03-01T10:34:14;3.17;;;2.00;;
6135;SDS011;24008;42.664;23.372;2023-03-01T10:36:43;3.77;;;2.30;;
6135;SDS011;24008;42.664;23.372;2023-03-01T10:39:12;2.77;;;2.50;;
6135;SDS011;24008;42.664;23.372;2023-03-01T10:41:52;5.03;;;2.43;;
6135;SDS011;24008;42.664;23.372;2023-03-01T10:44:38;2.70;;;2.17;;
6135;SDS011;24008;42.664;23.372;2023-03-01T10:47:12;5.60;;;3.27;;
6135;SDS011;24008;42.664;23.372;2023-03-01T10:49:51;3.67;;;2.33;;
6135;SDS011;24008;42.664;23.372;2023-03-01T10:52:24;2.50;;;1.60;;
6135;SDS011;24008;42.664;23.372;2023-03-01T10:54:53;3.77;;;1.77;;
6135;SDS011;24008;42.664;23.372;2023-03-01T10:57:29;6.33;;;2.67;;
6135;SDS011;24008;42.664;23.372;2023-03-01T11:03:08;2.40;;;2.10;;
6135;SDS011;24008;42.664;23.372;2023-03-01T11:05:49;2.80;;;2.50;;
6135;SDS011;24008;42.664;23.372;2023-03-01T11:08:38;3.40;;;2.20;;
6135;SDS011;24008;42.664;23.372;2023-03-01T11:11:10;3.83;;;2.50;;
6135;SDS011;24008;42.664;23.372;2023-03-01T11:13:54;5.20;;;2.07;;
6135;SDS011;24008;42.664;23.372;2023-03-01T11:16:24;4.20;;;2.37;;
6135;SDS011;24008;42.664;23.372;2023-03-01T11:19:14;4.53;;;2.87;;
6135;SDS011;24008;42.664;23.372;2023-03-01T11:21:47;4.10;;;2.23;;
6135;SDS011;24008;42.664;23.372;2023-03-01T11:24:19;3.53;;;2.00;;
6135;SDS011;24008;42.664;23.372;2023-03-01T11:26:53;3.47;;;2.20;;
6135;SDS011;24008;42.664;23.372;2023-03-01T11:29:24;3.00;;;1.90;;
6135;SDS011;24008;42.664;23.372;2023-03-01T11:31:57;3.37;;;2.73;;
6135;SDS011;24008;42.664;23.372;2023-03-01T11:34:31;4.57;;;3.20;;
6135;SDS011;24008;42.664;23.372;2023-03-01T11:37:12;4.67;;;3.50;;
6135;SDS011;24008;42.664;23.372;2023-03-01T11:39:51;5.07;;;3.00;;
6135;SDS011;24008;42.664;23.372;2023-03-01T11:42:28;6.87;;;3.00;;
6135;SDS011;24008;42.664;23.372;2023-03-01T11:45:06;4.70;;;2.70;;
6135;SDS011;24008;42.664;23.372;2023-03-01T11:47:46;6.70;;;3.13;;
6135;SDS011;24008;42.664;23.372;2023-03-01T11:50:26;6.20;;;3.47;;
6135;SDS011;24008;42.664;23.372;2023-03-01T11:53:04;3.43;;;3.13;;
6135;SDS011;24008;42.664;23.372;2023-03-01T11:55:54;4.70;;;3.17;;
6135;SDS011;24008;42.664;23.372;2023-03-01T11:58:34;4.47;;;3.00;;
6135;SDS011;24008;42.664;23.372;2023-03-01T12:01:17;4.67;;;3.00;;
6135;SDS011;24008;42.664;23.372;2023-03-01T12:03:58;9.13;;;4.13;;
6135;SDS011;24008;42.664;23.372;2023-03-01T12:06:41;7.00;;;4.27;;
6135;SDS011;24008;42.664;23.372;2023-03-01T12:09:26;4.70;;;2.97;;
6135;SDS011;24008;42.664;23.372;2023-03-01T12:12:11;6.80;;;4.33;;
6135;SDS011;24008;42.664;23.372;2023-03-01T12:14:55;8.00;;;5.67;;
6135;SDS011;24008;42.664;23.372;2023-03-01T12:17:47;6.47;;;4.50;;
6135;SDS011;24008;42.664;23.372;2023-03-01T12:20:32;5.40;;;3.90;;
6135;SDS011;24008;42.664;23.372;2023-03-01T12:23:14;6.50;;;4.10;;
6135;SDS011;24008;42.664;23.372;2023-03-01T12:25:54;6.53;;;4.87;;
6135;SDS011;24008;42.664;23.372;2023-03-01T12:28:31;7.77;;;5.83;;
6135;SDS011;24008;42.664;23.372;2023-03-01T12:34:03;6.63;;;4.27;;
6135;SDS011;24008;42.664;23.372;2023-03-01T12:36:54;7.10;;;5.30;;
6135;SDS011;24008;42.664;23.372;2023-03-01T12:39:57;7.40;;;4.60;;
6135;SDS011;24008;42.664;23.372;2023-03-01T12:42:41;5.93;;;4.00;;
6135;SDS011;24008;42.664;23.372;2023-03-01T12:45:27;5.40;;;4.20;;
6135;SDS011;24008;42.664;23.372;2023-03-01T12:48:12;5.93;;;3.77;;
6135;SDS011;24008;42.664;23.372;2023-03-01T12:50:51;9.40;;;3.87;;
6135;SDS011;24008;42.664;23.372;2023-03-01T12:53:22;6.67;;;4.33;;
6135;SDS011;24008;42.664;23.372;2023-03-01T12:55:51;7.20;;;4.53;;
6135;SDS011;24008;42.664;23.372;2023-03-01T12:58:23;11.20;;;5.80;;
6135;SDS011;24008;42.664;23.372;2023-03-01T13:00:57;10.53;;;5.60;;
6135;SDS011;24008;42.664;23.372;2023-03-01T13:03:32;5.87;;;4.43;;
6135;SDS011;24008;42.664;23.372;2023-03-01T13:06:24;7.40;;;4.67;;
6135;SDS011;24008;42.664;23.372;2023-03-01T13:08:58;6.30;;;4.73;;
6135;SDS011;24008;42.664;23.372;2023-03-01T13:11:31;9.03;;;5.07;;
6135;SDS011;24008;42.664;23.372;2023-03-01T13:17:01;8.97;;;5.80;;
6135;SDS011;24008;42.664;23.372;2023-03-01T13:19:28;7.63;;;5.30;;
6135;SDS011;24008;42.664;23.372;2023-03-01T13:21:57;7.13;;;5.17;;
6135;SDS011;24008;42.664;23.372;2023-03-01T13:24:26;5.73;;;4.67;;
6135;SDS011;24008;42.664;23.372;2023-03-01T13:27:10;7.00;;;4.83;;
6135;SDS011;24008;42.664;23.372;2023-03-01T13:29:50;6.17;;;5.07;;
6135;SDS011;24008;42.664;23.372;2023-03-01T13:32:20;5.60;;;3.60;;
6135;SDS011;24008;42.664;23.372;2023-03-01T13:34:56;2.93;;;2.27;;
6135;SDS011;24008;42.664;23.372;2023-03-01T13:37:25;5.73;;;3.27;;
6135;SDS011;24008;42.664;23.372;2023-03-01T13:40:02;4.67;;;3.87;;
6135;SDS011;24008;42.664;23.372;2023-03-01T13:42:32;4.43;;;3.40;;
6135;SDS011;24008;42.664;23.372;2023-03-01T13:45:03;7.37;;;4.43;;
6135;SDS011;24008;42.664;23.372;2023-03-01T13:47:41;4.67;;;3.40;;
6135;SDS011;24008;42.664;23.372;2023-03-01T13:50:15;7.93;;;3.70;;
6135;SDS011;24008;42.664;23.372;2023-03-01T13:52:48;5.40;;;4.40;;
6135;SDS011;24008;42.664;23.372;2023-03-01T13:55:40;6.07;;;3.87;;
6135;SDS011;24008;42.664;23.372;2023-03-01T13:58:19;6.33;;;4.17;;
6135;SDS011;24008;42.664;23.372;2023-03-01T14:00:55;5.47;;;3.83;;
6135;SDS011;24008;42.664;23.372;2023-03-01T14:03:24;6.73;;;3.57;;
6135;SDS011;24008;42.664;23.372;2023-03-01T14:05:58;7.43;;;4.33;;
6135;SDS011;24008;42.664;23.372;2023-03-01T14:08:27;5.57;;;3.40;;
6135;SDS011;24008;42.664;23.372;2023-03-01T14:11:07;6.10;;;4.07;;
6135;SDS011;24008;42.664;23.372;2023-03-01T14:13:53;5.43;;;3.87;;
6135;SDS011;24008;42.664;23.372;2023-03-01T14:16:33;6.50;;;3.97;;
6135;SDS011;24008;42.664;23.372;2023-03-01T14:19:13;5.30;;;3.33;;
6135;SDS011;24008;42.664;23.372;2023-03-01T14:21:44;5.30;;;3.90;;
6135;SDS011;24008;42.664;23.372;2023-03-01T14:24:16;6.50;;;3.83;;
6135;SDS011;24008;42.664;23.372;2023-03-01T14:26:44;5.40;;;3.33;;
6135;SDS011;24008;42.664;23.372;2023-03-01T14:29:23;5.13;;;3.37;;
6135;SDS011;24008;42.664;23.372;2023-03-01T14:31:51;4.63;;;2.93;;
6135;SDS011;24008;42.664;23.372;2023-03-01T14:34:20;4.03;;;2.83;;
6135;SDS011;24008;42.664;23.372;2023-03-01T14:36:48;4.27;;;2.60;;
6135;SDS011;24008;42.664;23.372;2023-03-01T14:39:19;4.43;;;3.20;;
6135;SDS011;24008;42.664;23.372;2023-03-01T14:41:51;3.93;;;2.90;;
6135;SDS011;24008;42.664;23.372;2023-03-01T14:44:19;6.03;;;3.30;;
6135;SDS011;24008;42.664;23.372;2023-03-01T14:46:51;5.20;;;3.83;;
6135;SDS011;24008;42.664;23.372;2023-03-01T14:49:24;8.07;;;3.57;;
6135;SDS011;24008;42.664;23.372;2023-03-01T14:51:57;5.87;;;2.53;;
6135;SDS011;24008;42.664;23.372;2023-03-01T14:54:28;9.60;;;3.30;;
6135;SDS011;24008;42.664;23.372;2023-03-01T14:57:03;8.67;;;3.67;;
6135;SDS011;24008;42.664;23.372;2023-03-01T14:59:32;5.47;;;3.37;;
6135;SDS011;24008;42.664;23.372;2023-03-01T15:02:00;4.43;;;2.70;;
6135;SDS011;24008;42.664;23.372;2023-03-01T15:04:29;9.00;;;5.10;;
6135;SDS011;24008;42.664;23.372;2023-03-01T15:06:56;6.57;;;4.27;;
6135;SDS011;24008;42.664;23.372;2023-03-01T15:09:30;7.17;;;3.97;;
6135;SDS011;24008;42.664;23.372;2023-03-01T15:12:00;11.23;;;5.20;;
6135;SDS011;24008;42.664;23.372;2023-03-01T15:14:39;5.90;;;2.87;;
6135;SDS011;24008;42.664;23.372;2023-03-01T15:17:16;5.70;;;3.13;;
6135;SDS011;24008;42.664;23.372;2023-03-01T15:19:50;8.33;;;5.03;;
6135;SDS011;24008;42.664;23.372;2023-03-01T15:22:25;11.07;;;4.53;;
6135;SDS011;24008;42.664;23.372;2023-03-01T15:24:53;7.47;;;4.70;;
6135;SDS011;24008;42.664;23.372;2023-03-01T15:27:39;6.03;;;3.10;;
6135;SDS011;24008;42.664;23.372;2023-03-01T15:30:34;6.03;;;3.80;;